SBVH

Details ICAO SBVH (BVH)
Name VILHENA
Region Brazil
Timezone America/Porto_Velho (UTC-4.0)
Plans Departing 4
Arriving 8
Stats Elevation 2,018 ft / 615 m (AMSL)
Location -12.694373° -60.098270°
Runways 1
Magnetic Variation 15.192° W
Sunrise 2018-05-26 10:15:12 UTC / 2018-05-26 06:15:12 Local
Sunset 2018-05-26 21:42:35 UTC / 2018-05-26 17:42:35 Local
Advertisement - Login to hide

Runways

ID Width Length Bearing (true) Bearing (mag) Surface Threshold Offset Overrun Length
03 98 ft / 30 m 8,583 ft / 2,616 m 14.94° 30.13° Asphalt 0 ft / 0 m 0 ft / 0 m
21 98 ft / 30 m 8,583 ft / 2,616 m 194.94° 210.13° Asphalt 0 ft / 0 m 0 ft / 0 m

Map

Weather


0- 5 10 15 20 25 30 35+ Temperature / ° C

Clouds and Precipitation
Forecast for 2018-05-27 00:00 UTC. Updated 2 hours ago

Ground ~20,000 ft ~40,000 ft Winds

METAR

Not found

TAF

TAF SBVH 262200Z 2700/2712 10003KT CAVOK TN15/2706Z TX22/2712Z RMK PDY

Frequencies

Tower 125.90 MHz RDO
Warning: Do not use this data for real-world aviation or navigation. No guarantee of current accuracy is given.